createdAt,value
2018-04-24T00:00:59.894Z,4.53
2018-04-24T00:03:27.277Z,4.83
2018-04-24T00:05:54.673Z,4.40
2018-04-24T00:08:22.157Z,4.63
2018-04-24T00:10:49.609Z,4.77
2018-04-24T00:13:17.021Z,3.93
2018-04-24T00:15:44.409Z,4.13
2018-04-24T00:18:11.815Z,4.23
2018-04-24T00:20:39.205Z,4.40
2018-04-24T00:23:06.657Z,4.70
2018-04-24T00:25:34.069Z,5.07
2018-04-24T00:28:01.457Z,4.40
2018-04-24T00:30:28.925Z,3.73
2018-04-24T00:32:56.308Z,3.17
2018-04-24T00:35:23.713Z,4.23
2018-04-24T00:37:51.097Z,3.80
2018-04-24T00:40:18.535Z,4.73
2018-04-24T00:42:45.991Z,3.83
2018-04-24T00:45:13.413Z,4.97
2018-04-24T00:47:40.865Z,4.07
2018-04-24T00:50:08.304Z,3.80
2018-04-24T00:52:35.777Z,4.00
2018-04-24T00:55:03.165Z,4.70
2018-04-24T00:57:30.586Z,4.13
2018-04-24T00:59:57.973Z,3.47
2018-04-24T01:02:25.373Z,3.93
2018-04-24T01:04:52.753Z,4.00
2018-04-24T01:07:20.161Z,4.00
2018-04-24T01:09:47.556Z,3.80
2018-04-24T01:12:14.952Z,4.30
2018-04-24T01:14:42.416Z,3.93
2018-04-24T01:17:09.892Z,4.50
2018-04-24T01:19:37.201Z,4.37
2018-04-24T01:22:04.602Z,4.87
2018-04-24T01:24:32.046Z,5.03
2018-04-24T01:26:59.449Z,4.83
2018-04-24T01:29:26.921Z,5.10
2018-04-24T01:31:54.385Z,4.97
2018-04-24T01:34:21.773Z,4.73
2018-04-24T01:36:49.192Z,5.87
2018-04-24T01:39:16.576Z,4.53
2018-04-24T01:41:45.685Z,5.10
2018-04-24T01:44:13.069Z,4.60
2018-04-24T01:46:40.466Z,4.90
2018-04-24T01:49:07.933Z,4.77
2018-04-24T01:51:35.369Z,4.30
2018-04-24T01:54:02.761Z,4.87
2018-04-24T01:56:30.177Z,4.17
2018-04-24T01:58:57.572Z,4.80
2018-04-24T02:01:24.968Z,5.13
2018-04-24T02:03:52.483Z,4.57
2018-04-24T02:06:19.878Z,4.40
2018-04-24T02:08:47.261Z,4.33
2018-04-24T02:11:14.681Z,4.83
2018-04-24T02:13:42.087Z,4.33
2018-04-24T02:16:09.472Z,4.60
2018-04-24T02:18:36.892Z,4.33
2018-04-24T02:21:04.397Z,4.70
2018-04-24T02:23:31.792Z,4.20
2018-04-24T02:25:59.212Z,4.67
2018-04-24T02:28:26.601Z,3.87
2018-04-24T02:30:54.009Z,4.90
2018-04-24T02:33:21.483Z,5.07
2018-04-24T02:35:48.945Z,4.97
2018-04-24T02:38:16.337Z,5.17
2018-04-24T02:40:43.725Z,4.50
2018-04-24T02:43:11.177Z,5.13
2018-04-24T02:45:38.669Z,5.43
2018-04-24T02:48:06.135Z,5.40
2018-04-24T02:50:33.548Z,6.20
2018-04-24T02:53:00.945Z,5.10
2018-04-24T02:55:28.381Z,5.50
2018-04-24T02:57:55.780Z,5.60
2018-04-24T03:00:23.168Z,5.17
2018-04-24T03:02:50.556Z,5.53
2018-04-24T03:05:17.981Z,5.80
2018-04-24T03:07:45.467Z,5.20
2018-04-24T03:10:12.917Z,5.60
2018-04-24T03:12:40.321Z,5.20
2018-04-24T03:15:07.710Z,4.87
2018-04-24T03:17:35.149Z,5.43
2018-04-24T03:20:02.546Z,5.53
2018-04-24T03:22:29.958Z,5.90
2018-04-24T03:24:57.337Z,5.50
2018-04-24T03:27:24.765Z,5.50
2018-04-24T03:29:52.156Z,5.40
2018-04-24T03:32:19.562Z,5.50
2018-04-24T03:34:46.968Z,5.60
2018-04-24T03:37:14.358Z,5.13
2018-04-24T03:39:41.765Z,5.43
2018-04-24T03:42:09.274Z,5.33
2018-04-24T03:44:36.674Z,5.97
2018-04-24T03:47:04.061Z,6.00
2018-04-24T03:49:31.540Z,5.10
2018-04-24T03:51:58.951Z,6.57
2018-04-24T03:54:26.352Z,6.43
2018-04-24T03:56:53.749Z,5.70
2018-04-24T03:59:21.152Z,6.37
2018-04-24T04:01:48.624Z,5.83
2018-04-24T04:04:16.950Z,6.50
2018-04-24T04:06:44.450Z,7.17
2018-04-24T04:09:11.836Z,7.47
2018-04-24T04:11:39.262Z,7.23
2018-04-24T04:14:06.665Z,8.63
2018-04-24T04:16:34.053Z,7.40
2018-04-24T04:19:13.305Z,7.70
2018-04-24T04:21:52.609Z,7.80
2018-04-24T04:27:18.690Z,8.50
2018-04-24T04:29:46.100Z,8.97
2018-04-24T04:32:13.507Z,8.23
2018-04-24T04:34:40.964Z,9.50
2018-04-24T04:37:09.274Z,8.30
2018-04-24T04:39:36.686Z,8.43
2018-04-24T04:42:04.158Z,8.67
2018-04-24T04:44:31.549Z,7.77
2018-04-24T04:46:58.932Z,8.10
2018-04-24T04:49:26.338Z,9.30
2018-04-24T04:51:53.724Z,9.43
2018-04-24T04:54:21.217Z,9.90
2018-04-24T04:56:48.617Z,10.13
2018-04-24T04:59:16.021Z,10.33
2018-04-24T05:01:43.489Z,9.87
2018-04-24T05:04:10.944Z,10.53
2018-04-24T05:06:38.412Z,9.90
2018-04-24T05:09:06.657Z,11.40
2018-04-24T05:11:34.048Z,10.93
2018-04-24T05:14:01.456Z,11.13
2018-04-24T05:16:28.857Z,10.53
2018-04-24T05:18:56.264Z,10.80
2018-04-24T05:21:23.673Z,10.93
2018-04-24T05:23:51.088Z,11.10
2018-04-24T05:26:18.489Z,10.00
2018-04-24T05:28:45.892Z,10.53
2018-04-24T05:31:13.336Z,10.13
2018-04-24T05:33:40.789Z,10.23
2018-04-24T05:36:08.201Z,11.03
2018-04-24T05:38:35.601Z,11.37
2018-04-24T05:41:03.065Z,11.30
2018-04-24T05:43:30.454Z,9.90
2018-04-24T05:45:57.905Z,10.00
2018-04-24T05:48:25.305Z,9.97
2018-04-24T05:50:52.702Z,9.73
2018-04-24T05:53:20.085Z,9.77
2018-04-24T05:55:47.588Z,10.67
2018-04-24T05:58:15.049Z,8.97
2018-04-24T06:00:42.531Z,10.20
2018-04-24T06:03:10.057Z,9.43
2018-04-24T06:05:37.417Z,10.20
2018-04-24T06:08:04.805Z,8.90
2018-04-24T06:10:32.205Z,9.80
2018-04-24T06:12:59.602Z,8.57
2018-04-24T06:15:27.065Z,8.57
2018-04-24T06:17:54.468Z,9.40
2018-04-24T06:20:21.877Z,9.20
2018-04-24T06:22:49.274Z,10.57
2018-04-24T06:25:16.677Z,8.30
2018-04-24T06:27:44.065Z,9.47
2018-04-24T06:30:11.573Z,8.20
2018-04-24T06:32:38.960Z,8.20
2018-04-24T06:35:06.389Z,8.93
2018-04-24T06:37:33.846Z,8.60
2018-04-24T06:40:01.245Z,8.17
2018-04-24T06:42:28.636Z,8.90
2018-04-24T06:44:56.115Z,9.00
2018-04-24T06:47:23.513Z,8.87
2018-04-24T06:49:50.924Z,9.70
2018-04-24T06:52:18.332Z,7.47
2018-04-24T06:54:45.734Z,8.67
2018-04-24T06:57:13.159Z,7.80
2018-04-24T06:59:40.645Z,8.90
2018-04-24T07:02:08.049Z,7.73
2018-04-24T07:04:35.440Z,8.97
2018-04-24T07:07:02.908Z,8.30
2018-04-24T07:09:30.304Z,8.10
2018-04-24T07:11:57.717Z,7.60
2018-04-24T07:14:25.111Z,8.53
2018-04-24T07:16:52.524Z,8.53
2018-04-24T07:19:19.905Z,8.30
2018-04-24T07:21:47.296Z,8.70
2018-04-24T07:24:14.698Z,8.63
2018-04-24T07:26:42.112Z,7.50
2018-04-24T07:29:09.504Z,8.60
2018-04-24T07:31:36.977Z,8.03
2018-04-24T07:34:04.435Z,9.23
2018-04-24T07:36:31.889Z,7.50
2018-04-24T07:38:59.340Z,8.60
2018-04-24T07:41:26.748Z,7.57
2018-04-24T07:43:54.193Z,7.10
2018-04-24T07:46:21.553Z,7.43
2018-04-24T07:48:48.945Z,6.80
2018-04-24T07:51:16.330Z,7.60
2018-04-24T07:53:43.773Z,7.03
2018-04-24T07:56:11.168Z,7.20
2018-04-24T07:58:38.585Z,6.60
2018-04-24T08:01:06.049Z,6.63
2018-04-24T08:03:33.530Z,6.83
2018-04-24T08:06:00.957Z,6.80
2018-04-24T08:08:28.382Z,7.30
2018-04-24T08:10:55.775Z,7.37
2018-04-24T08:13:23.189Z,6.20
2018-04-24T08:15:50.578Z,7.27
2018-04-24T08:18:17.976Z,7.30
2018-04-24T08:20:45.381Z,6.90
2018-04-24T08:23:12.844Z,8.10
2018-04-24T08:25:40.229Z,6.80
2018-04-24T08:28:07.626Z,6.60
2018-04-24T08:30:35.033Z,6.50
2018-04-24T08:33:02.486Z,7.03
2018-04-24T08:35:29.877Z,7.30
2018-04-24T08:37:57.276Z,7.70
2018-04-24T08:40:24.670Z,8.13
2018-04-24T08:42:52.133Z,7.87
2018-04-24T08:45:19.557Z,7.10
2018-04-24T08:47:46.982Z,7.10
2018-04-24T08:50:14.352Z,6.97
2018-04-24T08:52:41.729Z,6.57
2018-04-24T08:55:09.130Z,7.90
2018-04-24T08:57:36.524Z,6.60
2018-04-24T09:00:04.024Z,7.47
2018-04-24T09:02:31.422Z,7.20
2018-04-24T09:04:58.851Z,8.00
2018-04-24T09:07:26.257Z,8.30
2018-04-24T09:09:53.662Z,8.27
2018-04-24T09:12:21.109Z,9.20
2018-04-24T09:14:48.504Z,7.97
2018-04-24T09:17:15.973Z,7.80
2018-04-24T09:19:43.397Z,8.10
2018-04-24T09:22:10.785Z,7.77
2018-04-24T09:24:38.192Z,8.90
2018-04-24T09:27:05.673Z,9.07
2018-04-24T09:29:32.976Z,8.20
2018-04-24T09:32:00.373Z,9.00
2018-04-24T09:34:27.854Z,9.53
2018-04-24T09:36:55.245Z,8.70
2018-04-24T09:39:22.653Z,8.83
2018-04-24T09:41:50.049Z,10.43
2018-04-24T09:44:17.482Z,9.97
2018-04-24T09:46:44.964Z,10.90
2018-04-24T09:49:12.365Z,9.90
2018-04-24T09:51:39.754Z,9.00
2018-04-24T09:54:07.210Z,9.30
2018-04-24T09:56:34.618Z,9.83
2018-04-24T09:59:02.020Z,9.80
2018-04-24T10:01:29.653Z,10.50
2018-04-24T10:03:57.077Z,9.87
2018-04-24T10:06:24.489Z,9.70
2018-04-24T10:08:51.910Z,11.00
2018-04-24T10:11:19.302Z,11.60
2018-04-24T10:13:46.967Z,10.70
2018-04-24T10:16:14.317Z,10.83
2018-04-24T10:18:41.708Z,9.90
2018-04-24T10:21:09.137Z,10.07
2018-04-24T10:23:36.534Z,11.40
2018-04-24T10:26:03.936Z,12.40
2018-04-24T10:28:31.409Z,11.63
2018-04-24T10:30:59.613Z,11.57
2018-04-24T10:33:27.036Z,10.80
2018-04-24T10:35:54.436Z,12.67
2018-04-24T10:38:21.933Z,12.20
2018-04-24T10:40:49.389Z,10.87
2018-04-24T10:43:16.789Z,11.70
2018-04-24T10:45:44.309Z,11.43
2018-04-24T10:48:11.708Z,10.73
2018-04-24T10:50:39.119Z,11.60
2018-04-24T10:53:06.514Z,10.87
2018-04-24T10:55:33.930Z,10.83
2018-04-24T10:58:01.329Z,11.90
2018-04-24T11:00:28.725Z,11.73
2018-04-24T11:02:56.210Z,11.30
2018-04-24T11:05:23.613Z,11.33
2018-04-24T11:07:51.042Z,12.13
2018-04-24T11:10:18.449Z,10.40
2018-04-24T11:12:45.845Z,12.20
2018-04-24T11:15:13.264Z,13.00
2018-04-24T11:17:40.654Z,11.87
2018-04-24T11:20:08.058Z,12.00
2018-04-24T11:22:35.460Z,11.50
2018-04-24T11:25:02.857Z,12.63
2018-04-24T11:27:30.273Z,11.87
2018-04-24T11:29:57.721Z,13.03
2018-04-24T11:32:25.125Z,12.60
2018-04-24T11:34:52.526Z,13.07
2018-04-24T11:37:19.925Z,13.33
2018-04-24T11:39:47.326Z,13.47
2018-04-24T11:42:14.720Z,13.37
2018-04-24T11:44:42.139Z,14.50
2018-04-24T11:47:09.596Z,13.60
2018-04-24T11:49:37.083Z,12.53
2018-04-24T11:52:04.397Z,13.83
2018-04-24T11:54:31.804Z,13.43
2018-04-24T11:56:59.243Z,13.60
2018-04-24T11:59:26.673Z,13.60
2018-04-24T12:01:54.089Z,14.23
2018-04-24T12:04:21.489Z,14.37
2018-04-24T12:06:48.891Z,15.03
2018-04-24T12:09:16.306Z,14.57
2018-04-24T12:11:43.693Z,13.20
2018-04-24T12:14:11.101Z,14.50
2018-04-24T12:16:38.576Z,14.80
2018-04-24T12:19:06.037Z,15.00
2018-04-24T12:21:33.457Z,13.40
2018-04-24T12:24:00.944Z,13.93
2018-04-24T12:26:28.357Z,14.13
2018-04-24T12:28:55.752Z,15.23
2018-04-24T12:31:23.159Z,15.30
2018-04-24T12:33:50.581Z,14.27
2018-04-24T12:36:17.985Z,14.23
2018-04-24T12:38:45.394Z,14.10
2018-04-24T12:41:12.792Z,14.80
2018-04-24T12:43:40.293Z,14.50
2018-04-24T12:46:07.701Z,14.30
2018-04-24T12:48:35.105Z,14.67
2018-04-24T12:51:02.632Z,15.07
2018-04-24T12:53:30.224Z,14.90
2018-04-24T12:55:57.625Z,15.00
2018-04-24T12:58:25.025Z,14.23
2018-04-24T13:00:52.441Z,13.67
2018-04-24T13:03:19.841Z,13.20
2018-04-24T13:05:47.325Z,14.37
2018-04-24T13:08:14.774Z,13.27
2018-04-24T13:10:42.222Z,14.30
2018-04-24T13:13:09.628Z,14.93
2018-04-24T13:15:37.021Z,13.83
2018-04-24T13:18:04.480Z,13.93
2018-04-24T13:20:31.888Z,13.80
2018-04-24T13:22:59.400Z,14.77
2018-04-24T13:25:26.903Z,15.17
2018-04-24T13:27:54.267Z,14.70
2018-04-24T13:30:21.702Z,14.63
2018-04-24T13:32:49.104Z,14.17
2018-04-24T13:35:16.541Z,14.60
2018-04-24T13:37:43.933Z,15.27
2018-04-24T13:40:11.388Z,14.07
2018-04-24T13:42:38.863Z,14.80
2018-04-24T13:45:06.290Z,14.00
2018-04-24T13:47:33.692Z,13.67
2018-04-24T13:50:02.035Z,13.47
2018-04-24T13:52:29.437Z,13.70
2018-04-24T13:54:56.851Z,14.20
2018-04-24T13:57:24.253Z,12.50
2018-04-24T13:59:51.658Z,13.40
2018-04-24T14:02:19.073Z,14.37
2018-04-24T14:04:46.460Z,14.30
2018-04-24T14:07:13.865Z,14.37
2018-04-24T14:09:41.257Z,14.80
2018-04-24T14:12:08.672Z,14.23
2018-04-24T14:14:36.091Z,14.60
2018-04-24T14:17:03.502Z,14.40
2018-04-24T14:19:30.889Z,12.80
2018-04-24T14:21:58.292Z,12.90
2018-04-24T14:24:25.702Z,13.70
2018-04-24T14:26:53.109Z,13.70
2018-04-24T14:29:20.565Z,13.70
2018-04-24T14:31:48.009Z,13.52
2018-04-24T14:34:15.421Z,12.67
2018-04-24T14:36:42.893Z,14.97
2018-04-24T14:39:10.293Z,14.43
2018-04-24T14:41:37.702Z,15.57
2018-04-24T14:44:05.172Z,15.30
2018-04-24T14:46:32.602Z,15.50
2018-04-24T14:48:59.987Z,14.97
2018-04-24T14:51:27.503Z,13.93
2018-04-24T14:53:55.013Z,14.83
2018-04-24T14:56:22.401Z,13.27
2018-04-24T14:58:49.821Z,13.20
2018-04-24T15:01:17.261Z,13.57
2018-04-24T15:03:44.679Z,13.87
2018-04-24T15:06:12.105Z,12.90
2018-04-24T15:08:39.494Z,14.03
2018-04-24T15:11:06.892Z,13.70
2018-04-24T15:13:34.294Z,14.57
2018-04-24T15:16:01.695Z,13.30
2018-04-24T15:18:29.136Z,13.30
2018-04-24T15:20:56.613Z,13.20
2018-04-24T15:23:24.080Z,14.80
2018-04-24T15:25:51.525Z,15.00
2018-04-24T15:28:18.989Z,16.33
2018-04-24T15:30:46.462Z,16.60
2018-04-24T15:33:13.893Z,15.70
2018-04-24T15:35:41.348Z,15.37
2018-04-24T15:38:08.753Z,14.17
2018-04-24T15:40:36.148Z,16.30
2018-04-24T15:43:03.569Z,16.50
2018-04-24T15:45:30.983Z,16.17
2018-04-24T15:47:58.517Z,15.90
2018-04-24T15:50:25.849Z,14.57
2018-04-24T15:52:53.250Z,15.93
2018-04-24T15:55:20.645Z,16.47
2018-04-24T15:57:48.044Z,15.07
2018-04-24T16:00:15.441Z,14.80
2018-04-24T16:02:42.849Z,16.40
2018-04-24T16:05:10.248Z,16.67
2018-04-24T16:07:37.678Z,14.90
2018-04-24T16:10:05.070Z,15.00
2018-04-24T16:12:32.489Z,15.63
2018-04-24T16:14:59.965Z,14.57
2018-04-24T16:17:27.373Z,14.63
2018-04-24T16:19:54.776Z,15.00
2018-04-24T16:22:22.181Z,16.60
2018-04-24T16:24:49.673Z,17.07
2018-04-24T16:27:17.200Z,15.77
2018-04-24T16:29:44.639Z,16.40
2018-04-24T16:32:11.945Z,15.70
2018-04-24T16:34:40.337Z,16.73
2018-04-24T16:37:07.772Z,15.90
2018-04-24T16:39:35.230Z,17.47
2018-04-24T16:42:02.681Z,15.70
2018-04-24T16:44:30.078Z,18.10
2018-04-24T16:46:57.487Z,17.30
2018-04-24T16:49:24.970Z,18.27
2018-04-24T16:51:52.419Z,17.17
2018-04-24T16:54:19.937Z,16.90
2018-04-24T16:56:47.334Z,19.20
2018-04-24T16:59:14.814Z,18.00
2018-04-24T17:01:42.244Z,17.47
2018-04-24T17:04:09.646Z,18.93
2018-04-24T17:06:37.084Z,16.70
2018-04-24T17:09:07.194Z,17.67
2018-04-24T17:11:34.601Z,16.87
2018-04-24T17:14:02.021Z,15.17
2018-04-24T17:16:29.477Z,17.97
2018-04-24T17:18:56.889Z,17.37
2018-04-24T17:21:24.289Z,17.47
2018-04-24T17:23:51.707Z,18.17
2018-04-24T17:26:19.107Z,17.97
2018-04-24T17:28:46.579Z,17.13
2018-04-24T17:31:13.975Z,16.55
2018-04-24T17:33:41.399Z,18.10
2018-04-24T17:36:08.809Z,18.37
2018-04-24T17:38:36.226Z,17.83
2018-04-24T17:41:03.645Z,16.37
2018-04-24T17:43:31.044Z,17.43
2018-04-24T17:45:58.466Z,18.03
2018-04-24T17:48:25.853Z,16.63
2018-04-24T17:50:53.245Z,17.63
2018-04-24T17:53:20.653Z,17.87
2018-04-24T17:55:48.072Z,18.57
2018-04-24T17:58:15.485Z,16.53
2018-04-24T18:00:42.911Z,18.87
2018-04-24T18:03:10.314Z,18.80
2018-04-24T18:05:37.737Z,17.73
2018-04-24T18:08:05.148Z,18.10
2018-04-24T18:10:32.558Z,19.30
2018-04-24T18:12:59.953Z,17.67
2018-04-24T18:15:27.376Z,18.63
2018-04-24T18:17:54.785Z,18.03
2018-04-24T18:20:22.367Z,19.20
2018-04-24T18:22:49.769Z,17.20
2018-04-24T18:25:17.191Z,19.10
2018-04-24T18:27:44.756Z,20.80
2018-04-24T18:30:12.081Z,20.60
2018-04-24T18:32:39.507Z,20.70
2018-04-24T18:35:06.917Z,18.90
2018-04-24T18:37:34.348Z,20.70
2018-04-24T18:40:01.778Z,20.83
2018-04-24T18:42:29.255Z,21.90
2018-04-24T18:44:56.648Z,20.50
2018-04-24T18:47:24.064Z,22.27
2018-04-24T18:49:51.501Z,22.00
2018-04-24T18:52:18.946Z,22.60
2018-04-24T18:54:46.368Z,20.23
2018-04-24T18:57:13.777Z,21.27
2018-04-24T18:59:41.237Z,21.77
2018-04-24T19:02:08.652Z,24.00
2018-04-24T19:04:36.053Z,22.20
2018-04-24T19:07:03.462Z,22.13
2018-04-24T19:09:30.861Z,22.70
2018-04-24T19:11:58.316Z,22.80
2018-04-24T19:14:25.744Z,23.27
2018-04-24T19:16:53.165Z,23.00
2018-04-24T19:19:26.481Z,22.67
2018-04-24T19:21:53.894Z,21.73
2018-04-24T19:24:27.007Z,20.70
2018-04-24T19:26:54.417Z,21.83
2018-04-24T19:29:21.867Z,21.80
2018-04-24T19:31:54.961Z,22.17
2018-04-24T19:34:22.425Z,22.83
2018-04-24T19:36:49.890Z,21.27
2018-04-24T19:39:22.846Z,23.83
2018-04-24T19:41:51.216Z,23.20
2018-04-24T19:44:18.576Z,22.80
2018-04-24T19:46:45.972Z,23.33
2018-04-24T19:49:19.103Z,23.23
2018-04-24T19:51:46.545Z,23.10
2018-04-24T19:54:13.968Z,22.97
2018-04-24T19:56:41.427Z,22.80
2018-04-24T19:59:08.848Z,23.83
2018-04-24T20:01:36.338Z,23.23
2018-04-24T20:04:03.743Z,24.03
2018-04-24T20:06:31.145Z,24.43
2018-04-24T20:08:58.560Z,24.40
2018-04-24T20:11:25.949Z,24.33
2018-04-24T20:13:53.409Z,24.83
2018-04-24T20:16:20.988Z,25.13
2018-04-24T20:18:48.453Z,23.90
2018-04-24T20:21:15.843Z,24.43
2018-04-24T20:23:43.268Z,24.97
2018-04-24T20:26:10.650Z,25.50
2018-04-24T20:28:38.046Z,25.10
2018-04-24T20:31:05.468Z,24.73
2018-04-24T20:33:32.928Z,24.27
2018-04-24T20:36:00.352Z,25.13
2018-04-24T20:38:27.811Z,27.13
2018-04-24T20:40:55.217Z,25.43
2018-04-24T20:43:22.688Z,25.40
2018-04-24T20:45:50.130Z,26.83
2018-04-24T20:48:17.601Z,28.30
2018-04-24T20:50:45.021Z,27.17
2018-04-24T20:53:12.436Z,26.97
2018-04-24T20:55:39.888Z,26.27
2018-04-24T20:58:07.284Z,27.90
2018-04-24T21:00:34.797Z,26.00
2018-04-24T21:03:02.188Z,26.53
2018-04-24T21:05:29.693Z,27.03
2018-04-24T21:07:57.175Z,26.67
2018-04-24T21:10:24.591Z,25.80
2018-04-24T21:12:51.978Z,28.63
2018-04-24T21:15:19.418Z,27.43
2018-04-24T21:17:46.896Z,25.80
2018-04-24T21:20:14.305Z,27.33
2018-04-24T21:22:41.721Z,26.37
2018-04-24T21:25:09.123Z,27.10
2018-04-24T21:27:36.542Z,26.97
2018-04-24T21:30:03.953Z,28.57
2018-04-24T21:32:31.349Z,26.37
2018-04-24T21:34:58.756Z,28.17
2018-04-24T21:37:26.230Z,27.77
2018-04-24T21:39:53.666Z,28.40
2018-04-24T21:42:21.182Z,27.33
2018-04-24T21:44:48.590Z,27.43
2018-04-24T21:47:15.994Z,27.10
2018-04-24T21:49:43.386Z,29.70
2018-04-24T21:52:10.792Z,29.30
2018-04-24T21:54:38.196Z,29.60
2018-04-24T21:57:05.781Z,27.87
2018-04-24T21:59:33.190Z,28.07
2018-04-24T22:02:00.621Z,28.10
2018-04-24T22:04:28.023Z,29.00
2018-04-24T22:06:56.141Z,29.70
2018-04-24T22:09:23.609Z,27.93
2018-04-24T22:11:51.025Z,26.50
2018-04-24T22:14:18.438Z,29.30
2018-04-24T22:16:45.837Z,28.97
2018-04-24T22:19:13.264Z,29.40
2018-04-24T22:21:40.677Z,28.80
2018-04-24T22:24:08.144Z,30.73
2018-04-24T22:26:35.601Z,28.50
2018-04-24T22:29:02.996Z,30.17
2018-04-24T22:31:30.400Z,29.70
2018-04-24T22:33:57.800Z,29.73
2018-04-24T22:36:25.216Z,30.60
2018-04-24T22:38:52.693Z,29.60
2018-04-24T22:41:20.101Z,30.47
2018-04-24T22:43:47.512Z,30.00
2018-04-24T22:46:14.918Z,30.60
2018-04-24T22:48:42.360Z,27.77
2018-04-24T22:51:09.766Z,29.33
2018-04-24T22:53:37.213Z,29.23
2018-04-24T22:56:04.632Z,30.03
2018-04-24T22:58:32.132Z,29.93
2018-04-24T23:00:59.554Z,33.07
2018-04-24T23:03:26.941Z,30.97
2018-04-24T23:05:54.344Z,33.80
2018-04-24T23:08:21.781Z,32.03
2018-04-24T23:11:01.082Z,34.33
2018-04-24T23:13:40.333Z,32.53
2018-04-24T23:16:19.772Z,32.67
2018-04-24T23:18:58.889Z,32.17
2018-04-24T23:21:25.765Z,36.27
2018-04-24T23:23:53.165Z,33.50
2018-04-24T23:26:20.566Z,34.37
2018-04-24T23:28:48.098Z,36.47
2018-04-24T23:31:15.489Z,37.30
2018-04-24T23:33:43.841Z,38.20
2018-04-24T23:36:11.488Z,36.60
2018-04-24T23:38:38.921Z,36.77
2018-04-24T23:41:06.340Z,37.67
2018-04-24T23:43:33.747Z,38.10
2018-04-24T23:46:01.144Z,37.00
2018-04-24T23:48:28.633Z,37.10
2018-04-24T23:50:56.080Z,38.77
2018-04-24T23:53:23.565Z,38.60
2018-04-24T23:55:50.968Z,40.10
2018-04-24T23:58:18.469Z,41.40
